< < Back
Terminal Aerodrome Forecast


Current Version              Previous Versions:   1  2  3  4  5  6  7  8  9  

Terminal Aerodrome Forecast

716
FTUS42 KJAX 271120
TAFJAX
TAF
KJAX 271120Z 2712/2812 VRB03KT P6SM FEW040 SCT130 BKN200
     FM271400 27005KT P6SM SCT030
     FM271900 15008KT P6SM SCT050
     FM280100 VRB04KT P6SM FEW030 SCT250=

Latest METAR

402
SAUS80 KWBC 271100 CCA
MTRJAX
METAR KJAX 271056Z 00000KT 7SM R08/4500VP6000FT FEW250 23/23 A3007 RMK
AO2 SLP182 T02280228


USA.gov is the U.S. government's official web portal to all federal, state and local government web resources and services.